createdAt,value
2023-05-08T00:00:59.166Z,8.43
2023-05-08T00:03:27.465Z,8.20
2023-05-08T00:05:57.385Z,8.27
2023-05-08T00:08:25.337Z,7.55
2023-05-08T00:10:54.630Z,8.15
2023-05-08T00:13:23.881Z,8.25
2023-05-08T00:15:51.974Z,8.60
2023-05-08T00:18:20.165Z,8.32
2023-05-08T00:20:47.895Z,9.02
2023-05-08T00:23:15.843Z,9.20
2023-05-08T00:25:43.664Z,8.65
2023-05-08T00:28:13.493Z,8.95
2023-05-08T00:30:42.563Z,8.50
2023-05-08T00:33:12.253Z,9.40
2023-05-08T00:35:41.071Z,9.07
2023-05-08T00:38:08.885Z,9.43
2023-05-08T00:40:36.861Z,9.52
2023-05-08T00:43:04.713Z,10.07
2023-05-08T00:45:38.708Z,10.13
2023-05-08T00:48:07.449Z,9.43
2023-05-08T00:50:36.492Z,9.90
2023-05-08T00:53:05.584Z,9.70
2023-05-08T00:55:34.586Z,9.02
2023-05-08T00:58:03.129Z,9.43
2023-05-08T01:00:32.626Z,9.15
2023-05-08T01:03:02.626Z,9.55
2023-05-08T01:05:31.110Z,10.05
2023-05-08T01:07:59.558Z,10.13
2023-05-08T01:10:37.108Z,9.95
2023-05-08T01:13:13.362Z,9.95
2023-05-08T01:15:48.890Z,9.52
2023-05-08T01:18:24.143Z,9.77
2023-05-08T01:20:58.136Z,9.52
2023-05-08T01:24:23.005Z,10.13
2023-05-08T01:27:26.466Z,10.50
2023-05-08T01:30:26.943Z,11.32
2023-05-08T01:33:00.505Z,11.02
2023-05-08T01:35:33.063Z,11.70
2023-05-08T01:38:07.432Z,12.27
2023-05-08T01:40:41.827Z,11.77
2023-05-08T01:43:19.809Z,12.73
2023-05-08T01:45:50.909Z,12.60
2023-05-08T01:49:21.489Z,12.93
2023-05-08T01:51:59.997Z,13.43
2023-05-08T01:54:34.910Z,13.70
2023-05-08T01:57:05.186Z,14.18
2023-05-08T01:59:34.811Z,15.07
2023-05-08T02:02:04.948Z,14.73
2023-05-08T02:04:34.394Z,14.68
2023-05-08T02:07:04.707Z,14.75
2023-05-08T02:09:33.345Z,14.35
2023-05-08T02:12:02.872Z,14.95
2023-05-08T02:14:31.983Z,14.50
2023-05-08T02:17:02.910Z,15.20
2023-05-08T02:19:32.301Z,14.48
2023-05-08T02:22:01.596Z,15.82
2023-05-08T02:24:33.181Z,14.60
2023-05-08T02:27:01.735Z,15.43
2023-05-08T02:29:31.083Z,15.25
2023-05-08T02:32:00.821Z,14.88
2023-05-08T02:34:31.480Z,15.10
2023-05-08T02:37:01.093Z,15.40
2023-05-08T02:39:33.401Z,16.00
2023-05-08T02:42:02.381Z,15.85
2023-05-08T02:44:30.640Z,15.40
2023-05-08T02:47:07.325Z,16.20
2023-05-08T02:49:44.626Z,15.52
2023-05-08T02:52:18.177Z,15.20
2023-05-08T02:54:57.337Z,16.55
2023-05-08T02:57:34.637Z,16.35
2023-05-08T03:00:06.297Z,15.25
2023-05-08T03:02:39.089Z,15.35
2023-05-08T03:05:17.289Z,14.77
2023-05-08T03:07:48.497Z,16.15
2023-05-08T03:10:20.639Z,16.17
2023-05-08T03:12:53.970Z,15.55
2023-05-08T03:15:27.543Z,15.70
2023-05-08T03:17:59.512Z,15.45
2023-05-08T03:20:32.959Z,15.75
2023-05-08T03:23:03.946Z,14.85
2023-05-08T03:25:35.333Z,15.80
2023-05-08T03:28:06.194Z,15.82
2023-05-08T03:30:37.719Z,16.40
2023-05-08T03:33:10.794Z,15.95
2023-05-08T03:35:40.375Z,15.48
2023-05-08T03:38:10.431Z,15.48
2023-05-08T03:40:42.433Z,15.70
2023-05-08T03:43:13.961Z,15.70
2023-05-08T03:45:41.925Z,16.50
2023-05-08T03:48:11.373Z,16.80
2023-05-08T03:50:39.907Z,16.00
2023-05-08T03:53:12.767Z,16.42
2023-05-08T03:55:41.996Z,15.82
2023-05-08T03:58:19.256Z,15.88
2023-05-08T04:00:59.135Z,15.18
2023-05-08T04:03:39.737Z,16.17
2023-05-08T04:06:13.977Z,14.98
2023-05-08T04:08:47.957Z,15.23
2023-05-08T04:11:26.797Z,15.60
2023-05-08T04:14:01.588Z,14.85
2023-05-08T04:16:36.593Z,15.30
2023-05-08T04:19:11.526Z,14.80
2023-05-08T04:21:43.803Z,15.10
2023-05-08T04:24:16.015Z,15.15
2023-05-08T04:26:47.245Z,14.88
2023-05-08T04:29:17.156Z,15.40
2023-05-08T04:31:45.725Z,14.35
2023-05-08T04:34:14.335Z,15.68
2023-05-08T04:36:42.569Z,14.93
2023-05-08T04:39:10.815Z,15.30
2023-05-08T04:41:38.726Z,15.18
2023-05-08T04:44:08.929Z,15.07
2023-05-08T04:46:36.812Z,15.23
2023-05-08T04:49:04.986Z,15.32
2023-05-08T04:51:33.152Z,14.45
2023-05-08T04:54:01.117Z,14.55
2023-05-08T04:56:29.986Z,15.23
2023-05-08T04:58:57.854Z,14.15
2023-05-08T05:01:27.072Z,14.05
2023-05-08T05:03:55.959Z,14.73
2023-05-08T05:06:24.212Z,13.93
2023-05-08T05:08:52.039Z,13.43
2023-05-08T05:11:19.981Z,13.30
2023-05-08T05:13:48.509Z,14.38
2023-05-08T05:16:16.510Z,14.15
2023-05-08T05:18:45.925Z,12.95
2023-05-08T05:21:13.997Z,12.23
2023-05-08T05:23:42.076Z,15.05
2023-05-08T05:26:09.805Z,13.93
2023-05-08T05:28:38.133Z,13.43
2023-05-08T05:31:06.627Z,13.75
2023-05-08T05:33:36.760Z,13.43
2023-05-08T05:36:06.600Z,13.90
2023-05-08T05:38:34.935Z,14.18
2023-05-08T05:41:02.640Z,13.10
2023-05-08T05:43:30.692Z,13.20
2023-05-08T05:46:05.014Z,13.88
2023-05-08T05:48:33.290Z,12.75
2023-05-08T05:51:01.912Z,14.00
2023-05-08T05:53:32.635Z,13.15
2023-05-08T05:56:00.760Z,13.77
2023-05-08T05:58:29.518Z,13.90
2023-05-08T06:01:00.977Z,13.80
2023-05-08T06:03:29.276Z,12.90
2023-05-08T06:05:57.303Z,13.70
2023-05-08T06:08:27.959Z,13.65
2023-05-08T06:11:02.439Z,12.90
2023-05-08T06:13:33.133Z,13.18
2023-05-08T06:16:11.779Z,14.20
2023-05-08T06:18:41.360Z,14.10
2023-05-08T06:21:13.082Z,13.18
2023-05-08T06:23:42.644Z,13.15
2023-05-08T06:26:12.525Z,13.35
2023-05-08T06:28:40.448Z,12.68
2023-05-08T06:31:08.854Z,13.10
2023-05-08T06:33:36.854Z,13.82
2023-05-08T06:36:06.142Z,13.48
2023-05-08T06:38:34.124Z,12.95
2023-05-08T06:41:02.003Z,12.88
2023-05-08T06:43:31.721Z,13.25
2023-05-08T06:45:59.452Z,13.73
2023-05-08T06:48:29.158Z,13.25
2023-05-08T06:50:57.058Z,13.00
2023-05-08T06:53:25.356Z,13.90
2023-05-08T06:55:53.126Z,12.98
2023-05-08T06:58:20.908Z,13.65
2023-05-08T07:00:50.432Z,13.15
2023-05-08T07:03:18.569Z,13.05
2023-05-08T07:05:46.516Z,13.13
2023-05-08T07:08:14.750Z,13.13
2023-05-08T07:10:43.194Z,12.52
2023-05-08T07:13:11.929Z,13.05
2023-05-08T07:15:40.126Z,13.50
2023-05-08T07:18:09.342Z,13.73
2023-05-08T07:20:37.143Z,12.98
2023-05-08T07:23:04.951Z,12.88
2023-05-08T07:25:32.715Z,13.02
2023-05-08T07:28:01.482Z,13.48
2023-05-08T07:30:29.912Z,12.60
2023-05-08T07:32:57.799Z,13.20
2023-05-08T07:35:26.999Z,12.95
2023-05-08T07:37:54.972Z,13.20
2023-05-08T07:40:22.730Z,12.45
2023-05-08T07:42:50.544Z,12.85
2023-05-08T07:45:18.893Z,12.50
2023-05-08T07:47:50.407Z,12.75
2023-05-08T07:50:18.534Z,12.40
2023-05-08T07:52:50.087Z,13.43
2023-05-08T07:55:18.987Z,12.80
2023-05-08T07:57:47.349Z,13.48
2023-05-08T08:00:17.235Z,12.57
2023-05-08T08:02:45.855Z,12.48
2023-05-08T08:05:14.185Z,12.63
2023-05-08T08:07:42.029Z,12.82
2023-05-08T08:10:11.833Z,12.77
2023-05-08T08:12:39.629Z,12.50
2023-05-08T08:15:09.251Z,12.38
2023-05-08T08:17:37.787Z,12.52
2023-05-08T08:20:06.836Z,12.18
2023-05-08T08:22:34.536Z,13.25
2023-05-08T08:25:03.144Z,12.90
2023-05-08T08:27:32.858Z,13.57
2023-05-08T08:30:16.002Z,12.75
2023-05-08T08:32:46.445Z,13.35
2023-05-08T08:35:14.853Z,13.52
2023-05-08T08:37:44.057Z,14.18
2023-05-08T08:40:12.198Z,12.77
2023-05-08T08:42:41.964Z,13.65
2023-05-08T08:45:11.365Z,12.65
2023-05-08T08:47:41.590Z,12.90
2023-05-08T08:50:13.650Z,12.88
2023-05-08T08:52:48.322Z,12.88
2023-05-08T08:55:19.269Z,12.95
2023-05-08T08:57:58.062Z,12.63
2023-05-08T09:00:29.397Z,13.10
2023-05-08T09:02:57.222Z,13.02
2023-05-08T09:05:26.450Z,13.10
2023-05-08T09:07:56.947Z,13.82
2023-05-08T09:10:25.677Z,13.35
2023-05-08T09:12:55.273Z,12.80
2023-05-08T09:15:23.568Z,13.18
2023-05-08T09:17:51.414Z,12.68
2023-05-08T09:20:20.241Z,13.23
2023-05-08T09:22:48.808Z,13.35
2023-05-08T09:25:18.902Z,13.05
2023-05-08T09:27:46.683Z,13.93
2023-05-08T09:30:16.791Z,12.55
2023-05-08T09:32:45.705Z,13.98
2023-05-08T09:35:14.123Z,14.05
2023-05-08T09:37:43.775Z,14.15
2023-05-08T09:40:17.133Z,14.27
2023-05-08T09:42:45.595Z,15.52
2023-05-08T09:45:26.603Z,14.82
2023-05-08T09:47:54.478Z,14.38
2023-05-08T09:50:22.318Z,15.60
2023-05-08T09:52:50.817Z,14.95
2023-05-08T09:55:18.846Z,13.98
2023-05-08T09:57:54.942Z,14.93
2023-05-08T10:00:26.186Z,13.27
2023-05-08T10:02:59.858Z,12.88
2023-05-08T10:05:32.051Z,13.57
2023-05-08T10:08:18.411Z,13.93
2023-05-08T10:10:46.586Z,15.15
2023-05-08T10:13:15.135Z,13.95
2023-05-08T10:15:44.940Z,14.07
2023-05-08T10:18:13.567Z,14.35
2023-05-08T10:20:45.810Z,14.30
2023-05-08T10:23:17.493Z,14.15
2023-05-08T10:25:47.302Z,13.95
2023-05-08T10:28:20.158Z,13.77
2023-05-08T10:30:51.091Z,14.63
2023-05-08T10:33:22.856Z,15.50
2023-05-08T10:35:50.701Z,14.15
2023-05-08T10:38:19.765Z,15.70
2023-05-08T10:40:50.617Z,14.05
2023-05-08T10:43:19.684Z,15.20
2023-05-08T10:45:48.339Z,14.95
2023-05-08T10:48:27.180Z,14.88
2023-05-08T10:51:04.104Z,13.45
2023-05-08T10:53:39.945Z,13.57
2023-05-08T10:56:08.225Z,13.70
2023-05-08T10:58:39.116Z,13.45
2023-05-08T11:01:17.475Z,14.18
2023-05-08T11:03:50.476Z,13.32
2023-05-08T11:06:46.125Z,13.45
2023-05-08T11:09:23.037Z,12.40
2023-05-08T11:12:18.458Z,12.82
2023-05-08T11:14:57.217Z,12.90
2023-05-08T11:17:26.256Z,14.50
2023-05-08T11:20:00.888Z,14.13
2023-05-08T11:22:31.173Z,12.75
2023-05-08T11:25:01.270Z,12.57
2023-05-08T11:27:57.055Z,14.95
2023-05-08T11:30:28.276Z,13.23
2023-05-08T11:33:15.953Z,13.23
2023-05-08T11:35:53.543Z,13.82
2023-05-08T11:38:27.088Z,13.85
2023-05-08T11:41:07.113Z,13.88
2023-05-08T11:44:09.265Z,14.00
2023-05-08T11:46:40.923Z,14.57
2023-05-08T11:49:12.741Z,13.82
2023-05-08T11:51:45.264Z,14.65
2023-05-08T11:54:15.773Z,14.70
2023-05-08T11:56:44.247Z,13.90
2023-05-08T11:59:13.333Z,15.13
2023-05-08T12:01:41.361Z,15.07
2023-05-08T12:04:10.439Z,15.48
2023-05-08T12:06:39.428Z,15.18
2023-05-08T12:09:14.079Z,15.43
2023-05-08T12:11:43.738Z,15.00
2023-05-08T12:14:12.404Z,15.05
2023-05-08T12:16:41.121Z,15.57
2023-05-08T12:19:11.405Z,14.20
2023-05-08T12:21:39.552Z,15.80
2023-05-08T12:24:09.188Z,15.90
2023-05-08T12:26:39.137Z,15.75
2023-05-08T12:29:08.482Z,15.25
2023-05-08T12:31:36.936Z,14.50
2023-05-08T12:34:04.918Z,14.60
2023-05-08T12:36:35.313Z,15.85
2023-05-08T12:39:16.669Z,15.02
2023-05-08T12:41:50.092Z,14.48
2023-05-08T12:44:19.724Z,14.80
2023-05-08T12:46:48.360Z,16.00
2023-05-08T12:49:24.348Z,15.57
2023-05-08T12:51:53.061Z,16.30
2023-05-08T12:54:21.136Z,16.17
2023-05-08T12:56:51.250Z,15.85
2023-05-08T12:59:29.671Z,15.20
2023-05-08T13:01:57.438Z,16.33
2023-05-08T13:04:25.380Z,15.57
2023-05-08T13:06:56.824Z,14.80
2023-05-08T13:09:25.226Z,15.00
2023-05-08T13:11:54.690Z,15.57
2023-05-08T13:14:22.401Z,15.25
2023-05-08T13:16:51.694Z,15.07
2023-05-08T13:19:20.040Z,15.82
2023-05-08T13:21:47.838Z,15.50
2023-05-08T13:24:15.976Z,15.30
2023-05-08T13:26:43.996Z,15.30
2023-05-08T13:29:13.106Z,14.27
2023-05-08T13:31:40.966Z,15.15
2023-05-08T13:34:10.211Z,14.98
2023-05-08T13:36:38.013Z,14.52
2023-05-08T13:39:06.877Z,14.73
2023-05-08T13:41:34.532Z,14.70
2023-05-08T13:44:02.251Z,14.55
2023-05-08T13:46:31.382Z,15.02
2023-05-08T13:48:59.236Z,14.30
2023-05-08T13:51:27.153Z,13.50
2023-05-08T13:53:55.157Z,14.77
2023-05-08T13:56:23.343Z,15.15
2023-05-08T13:58:51.033Z,14.73
2023-05-08T14:01:26.472Z,15.13
2023-05-08T14:03:56.362Z,15.20
2023-05-08T14:06:24.686Z,14.13
2023-05-08T14:08:54.673Z,14.13
2023-05-08T14:11:24.682Z,13.88
2023-05-08T14:13:52.354Z,14.32
2023-05-08T14:16:20.454Z,15.38
2023-05-08T14:18:48.233Z,14.68
2023-05-08T14:21:17.606Z,15.23
2023-05-08T14:23:45.295Z,14.57
2023-05-08T14:26:13.151Z,14.82
2023-05-08T14:28:40.942Z,14.98
2023-05-08T14:31:08.791Z,14.77
2023-05-08T14:33:36.703Z,14.10
2023-05-08T14:36:05.102Z,14.50
2023-05-08T14:38:34.330Z,15.18
2023-05-08T14:41:04.663Z,14.73
2023-05-08T14:43:33.741Z,14.68
2023-05-08T14:46:01.492Z,14.77
2023-05-08T14:48:29.249Z,13.48
2023-05-08T14:50:57.691Z,14.63
2023-05-08T14:53:26.054Z,14.32
2023-05-08T14:55:55.349Z,13.80
2023-05-08T14:58:23.448Z,14.80
2023-05-08T15:00:51.141Z,14.20
2023-05-08T15:03:19.665Z,12.32
2023-05-08T15:05:48.381Z,11.35
2023-05-08T15:08:18.106Z,11.05
2023-05-08T15:10:45.913Z,10.93
2023-05-08T15:13:15.775Z,10.30
2023-05-08T15:15:43.510Z,9.75
2023-05-08T15:18:11.251Z,10.13
2023-05-08T15:20:39.095Z,10.48
2023-05-08T15:23:07.362Z,10.60
2023-05-08T15:25:35.431Z,9.15
2023-05-08T15:28:03.502Z,8.82
2023-05-08T15:30:32.962Z,9.77
2023-05-08T15:33:01.255Z,9.48
2023-05-08T15:35:29.566Z,9.00
2023-05-08T15:37:57.253Z,9.13
2023-05-08T15:40:25.245Z,10.38
2023-05-08T15:42:53.393Z,10.05
2023-05-08T15:45:21.687Z,9.90
2023-05-08T15:47:52.537Z,9.57
2023-05-08T15:50:20.311Z,9.77
2023-05-08T15:52:48.315Z,10.30
2023-05-08T15:55:17.530Z,8.50
2023-05-08T15:57:45.404Z,8.95
2023-05-08T16:00:14.494Z,8.98
2023-05-08T16:02:42.472Z,8.50
2023-05-08T16:05:13.002Z,9.57
2023-05-08T16:07:40.814Z,9.40
2023-05-08T16:10:10.088Z,10.90
2023-05-08T16:12:37.951Z,13.50
2023-05-08T16:15:07.744Z,18.88
2023-05-08T16:17:35.621Z,11.27
2023-05-08T16:20:03.801Z,18.48
2023-05-08T16:22:32.962Z,10.35
2023-05-08T16:25:00.669Z,9.85
2023-05-08T16:27:29.060Z,9.55
2023-05-08T16:29:56.815Z,9.52
2023-05-08T16:32:24.688Z,9.75
2023-05-08T16:34:52.329Z,9.25
2023-05-08T16:37:20.027Z,10.00
2023-05-08T16:39:49.333Z,9.00
2023-05-08T16:42:18.698Z,9.35
2023-05-08T16:44:46.488Z,8.85
2023-05-08T16:47:14.150Z,8.88
2023-05-08T16:49:42.232Z,9.27
2023-05-08T16:52:10.384Z,9.02
2023-05-08T16:54:38.762Z,9.13
2023-05-08T16:57:08.315Z,8.20
2023-05-08T16:59:35.973Z,10.75
2023-05-08T17:02:03.660Z,10.20
2023-05-08T17:04:31.513Z,9.38
2023-05-08T17:06:59.942Z,11.02
2023-05-08T17:09:28.634Z,13.93
2023-05-08T17:11:58.160Z,10.77
2023-05-08T17:14:28.247Z,9.02
2023-05-08T17:16:56.399Z,9.10
2023-05-08T17:19:24.349Z,9.43
2023-05-08T17:21:52.064Z,8.65
2023-05-08T17:24:20.113Z,7.43
2023-05-08T17:26:47.775Z,8.52
2023-05-08T17:29:15.944Z,8.13
2023-05-08T17:31:45.263Z,9.75
2023-05-08T17:34:13.380Z,10.02
2023-05-08T17:36:41.332Z,9.90
2023-05-08T17:39:09.068Z,8.70
2023-05-08T17:41:36.818Z,9.57
2023-05-08T17:44:05.274Z,9.68
2023-05-08T17:46:33.010Z,9.32
2023-05-08T17:49:02.229Z,9.55
2023-05-08T17:51:30.188Z,9.73
2023-05-08T17:53:58.024Z,9.57
2023-05-08T17:56:25.855Z,9.60
2023-05-08T17:58:55.344Z,10.60
2023-05-08T18:01:23.965Z,9.40
2023-05-08T18:03:53.842Z,8.73
2023-05-08T18:06:23.158Z,10.50
2023-05-08T18:08:50.903Z,10.00
2023-05-08T18:11:19.744Z,10.63
2023-05-08T18:13:47.639Z,13.52
2023-05-08T18:16:18.320Z,10.20
2023-05-08T18:18:46.741Z,10.10
2023-05-08T18:21:15.094Z,10.02
2023-05-08T18:23:44.282Z,10.73
2023-05-08T18:26:15.366Z,10.98
2023-05-08T18:28:43.409Z,9.45
2023-05-08T18:31:11.818Z,9.95
2023-05-08T18:33:40.083Z,10.43
2023-05-08T18:36:08.516Z,10.57
2023-05-08T18:38:36.588Z,10.43
2023-05-08T18:41:06.250Z,9.65
2023-05-08T18:43:34.635Z,10.57
2023-05-08T18:46:08.816Z,9.93
2023-05-08T18:48:37.176Z,9.52
2023-05-08T18:51:05.626Z,9.60
2023-05-08T18:53:34.563Z,10.27
2023-05-08T18:56:05.844Z,11.05
2023-05-08T18:58:33.774Z,10.35
2023-05-08T19:01:01.886Z,9.82
2023-05-08T19:03:29.721Z,10.25
2023-05-08T19:05:57.875Z,10.07
2023-05-08T19:08:25.751Z,10.63
2023-05-08T19:10:53.879Z,10.55
2023-05-08T19:13:23.137Z,10.50
2023-05-08T19:15:51.223Z,10.63
2023-05-08T19:18:19.243Z,10.15
2023-05-08T19:20:47.058Z,10.32
2023-05-08T19:23:17.326Z,9.98
2023-05-08T19:25:45.019Z,10.25
2023-05-08T19:28:12.868Z,11.07
2023-05-08T19:30:42.145Z,10.13
2023-05-08T19:33:10.862Z,10.57
2023-05-08T19:35:39.102Z,11.25
2023-05-08T19:38:06.961Z,10.70
2023-05-08T19:40:48.099Z,10.35
2023-05-08T19:43:22.946Z,10.77
2023-05-08T19:45:52.081Z,10.13
2023-05-08T19:48:20.424Z,10.25
2023-05-08T19:50:48.566Z,11.00
2023-05-08T19:53:16.710Z,10.23
2023-05-08T19:55:44.421Z,11.18
2023-05-08T19:58:12.111Z,12.27
2023-05-08T20:00:39.991Z,10.18
2023-05-08T20:03:09.463Z,10.95
2023-05-08T20:05:37.541Z,11.38
2023-05-08T20:08:05.825Z,10.82
2023-05-08T20:10:33.656Z,10.65
2023-05-08T20:13:02.012Z,11.50
2023-05-08T20:15:29.885Z,11.70
2023-05-08T20:17:59.215Z,12.30
2023-05-08T20:20:29.661Z,11.18
2023-05-08T20:22:58.152Z,11.73
2023-05-08T20:25:27.268Z,11.60
2023-05-08T20:27:54.924Z,12.30
2023-05-08T20:30:23.658Z,11.85
2023-05-08T20:32:53.228Z,12.65
2023-05-08T20:35:21.799Z,11.80
2023-05-08T20:37:50.853Z,11.27
2023-05-08T20:40:19.656Z,12.65
2023-05-08T20:42:47.674Z,12.18
2023-05-08T20:45:15.455Z,12.43
2023-05-08T20:47:43.171Z,12.25
2023-05-08T20:50:11.493Z,11.85
2023-05-08T20:52:41.896Z,12.25
2023-05-08T20:55:12.268Z,13.35
2023-05-08T20:57:40.261Z,12.75
2023-05-08T21:00:09.729Z,12.10
2023-05-08T21:02:38.713Z,13.90
2023-05-08T21:05:07.635Z,13.23
2023-05-08T21:07:36.129Z,12.63
2023-05-08T21:10:04.104Z,12.82
2023-05-08T21:12:33.184Z,13.52
2023-05-08T21:15:01.657Z,12.50
2023-05-08T21:17:29.654Z,11.90
2023-05-08T21:19:58.006Z,10.90
2023-05-08T21:22:25.872Z,11.80
2023-05-08T21:24:53.702Z,12.15
2023-05-08T21:27:21.415Z,11.70
2023-05-08T21:29:50.455Z,11.93
2023-05-08T21:32:18.196Z,12.75
2023-05-08T21:34:46.484Z,11.90
2023-05-08T21:37:14.254Z,12.13
2023-05-08T21:39:42.692Z,13.57
2023-05-08T21:42:11.211Z,12.38
2023-05-08T21:44:38.850Z,11.50
2023-05-08T21:47:08.319Z,12.00
2023-05-08T21:49:36.007Z,11.77
2023-05-08T21:52:04.046Z,12.40
2023-05-08T21:54:31.945Z,12.18
2023-05-08T21:57:00.127Z,12.40
2023-05-08T21:59:28.024Z,12.25
2023-05-08T22:01:55.725Z,12.65
2023-05-08T22:04:24.900Z,11.85
2023-05-08T22:06:52.554Z,12.95
2023-05-08T22:09:20.180Z,12.80
2023-05-08T22:11:47.886Z,13.27
2023-05-08T22:14:15.602Z,12.77
2023-05-08T22:16:43.667Z,12.82
2023-05-08T22:19:11.709Z,13.20
2023-05-08T22:21:41.604Z,13.32
2023-05-08T22:24:09.382Z,13.70
2023-05-08T22:26:37.204Z,13.68
2023-05-08T22:29:07.028Z,14.15
2023-05-08T22:31:34.807Z,12.90
2023-05-08T22:34:02.532Z,13.52
2023-05-08T22:36:30.272Z,14.70
2023-05-08T22:39:00.812Z,14.38
2023-05-08T22:41:30.560Z,14.02
2023-05-08T22:43:58.404Z,14.13
2023-05-08T22:46:26.481Z,14.55
2023-05-08T22:48:54.952Z,14.90
2023-05-08T22:51:22.869Z,15.20
2023-05-08T22:53:50.805Z,14.98
2023-05-08T22:56:19.906Z,15.13
2023-05-08T22:58:47.598Z,14.70
2023-05-08T23:01:17.229Z,14.60
2023-05-08T23:03:45.048Z,15.68
2023-05-08T23:06:13.283Z,15.93
2023-05-08T23:08:40.953Z,16.60
2023-05-08T23:11:08.752Z,15.23
2023-05-08T23:13:38.764Z,14.27
2023-05-08T23:16:07.142Z,15.55
2023-05-08T23:18:35.120Z,15.05
2023-05-08T23:21:06.491Z,15.20
2023-05-08T23:23:34.466Z,16.58
2023-05-08T23:26:05.086Z,15.85
2023-05-08T23:28:35.172Z,15.13
2023-05-08T23:31:05.154Z,14.70
2023-05-08T23:33:33.067Z,14.30
2023-05-08T23:36:01.136Z,14.80
2023-05-08T23:38:28.944Z,15.48
2023-05-08T23:40:57.173Z,16.17
2023-05-08T23:43:25.420Z,15.80
2023-05-08T23:45:53.280Z,13.10
2023-05-08T23:48:23.934Z,14.52
2023-05-08T23:50:52.062Z,14.52
2023-05-08T23:53:19.956Z,15.27
2023-05-08T23:55:50.588Z,15.23
2023-05-08T23:58:18.912Z,14.70
